Grand Rapids, MI (49534)

1:12 PM EST on January 21, 2017 (GMT -0500)
8th Ave - Leonard | | Change Station

Elev 676 ft 42.99 °N, 85.81 °W | Updated 35 seconds ago

Partly Cloudy
Partly Cloudy
55.7 °F
Feels Like 55.7 °F
N
3.0
Wind Variable Wind from SSE

Today
High -- | Low -- °F
--% Chance of Precip.
Yesterday
High -- | Low -- °F
Precip. -- in
Pressure 29.56 in
Visibility 6.0 miles
Clouds Mostly Cloudy 800 ft
Mostly Cloudy 18000 ft
Dew Point 51 °F
Humidity 86%
Rainfall 0.00 in
Snow Depth Not available.
8:07 AM 5:41 PM
Waning Crescent, 33% visible
METAR KGRR 211753Z 14010KT 6SM HZ BKN008 BKN180 13/10 A2954 RMK AO2 SLP008 T01280100 10128 20039 58019
Pressure 29.56 in
Visibility 6.0 miles
Clouds Mostly Cloudy 800 ft
Mostly Cloudy 18000 ft
Dew Point 51 °F
Humidity 86%
Rainfall 0.00 in
Snow Depth Not available.
8:07 AM 5:41 PM
Waning Crescent, 33% visible
METAR KGRR 211753Z 14010KT 6SM HZ BKN008 BKN180 13/10 A2954 RMK AO2 SLP008 T01280100 10128 20039 58019

Get Your Daily Forecast Email!

Thanks for signing up!

Be on the lookout for a verification email in your inbox.

You'll start receiving the daily forecast at 8 AM.

×

10-Day Weather Forecast

Almanac

Astronomy

Jan. 21, 2017 Rise Set
Actual Time
Civil Twilight
Nautical Twilight
Astronomical Twilight
Moon
Length of Visible Light
Length of Day
Tomorrow will be .
, % of the Moon is Illuminated

Today's Extremes

State Highs State Lows

Community

WunderPhotos

Upload Photos

1,962,540 photos uploaded!

WunderBlog® & News

Nearby

Air Quality

  Air Quality AQ Index Pollutant
Not available.

Snow Depth

Station Depth Elevation

Earthquake Activity

City Distance Mag. Time & Date
Minimum magnitude displayed is 2.5.

Coastal Water Temperatures

Place Temperature

Stations

Nearby Weather Stations

Station Location Temp. Windchill Dew Point Humidity Wind Precip. Elev Updated Type
                   

Watches & Warnings

There are currently no watches in effect.